Time;durP1;ratioP1;P1;durP2;ratioP2;P2;SDS_P1;SDS_P2;PMS_P1;PMS_P2;Temp;Humidity;BMP_temperature;BMP_pressure;BME280_temperature;BME280_humidity;BME280_pressure;Samples;Min_cycle;Max_cycle;Signal;HPM_P1;HPM_P2
2023/12/25 00:01:12;;;;;;;1.23;0.20;;;11.00;99.90;;;;;;4999254;28;20030;-62
2023/12/25 00:03:37;;;;;;;1.65;0.43;;;10.90;99.90;;;;;;4996204;28;20109;-62
2023/12/25 00:06:03;;;;;;;1.13;0.20;;;10.80;99.90;;;;;;5001380;28;20034;-63
2023/12/25 00:08:29;;;;;;;0.80;0.40;;;10.80;99.90;;;;;;5002884;28;20030;-62
2023/12/25 00:10:55;;;;;;;1.30;0.40;;;10.80;99.90;;;;;;4999612;28;20045;-62
2023/12/25 00:13:21;;;;;;;0.22;0.20;;;10.80;99.90;;;;;;5000749;28;20045;-63
2023/12/25 00:15:46;;;;;;;2.35;0.38;;;10.90;99.90;;;;;;4997039;28;20068;-62
2023/12/25 00:18:12;;;;;;;1.27;0.50;;;10.90;99.90;;;;;;5002561;28;20037;-62
2023/12/25 00:20:42;;;;;;;2.10;0.20;;;10.90;99.90;;;;;;5001696;28;20038;-62
2023/12/25 00:23:08;;;;;;;1.05;0.60;;;10.90;99.90;;;;;;5001129;28;20038;-62
2023/12/25 00:25:34;;;;;;;1.20;0.45;;;10.90;99.90;;;;;;5000499;28;20482;-62
2023/12/25 00:27:59;;;;;;;2.72;0.52;;;10.80;99.90;;;;;;5003996;28;20111;-62
2023/12/25 00:30:25;;;;;;;2.97;0.30;;;10.90;99.90;;;;;;5005567;28;20030;-63
2023/12/25 00:32:51;;;;;;;1.90;0.30;;;10.90;99.90;;;;;;5000516;28;20026;-62
2023/12/25 00:35:17;;;;;;;3.08;0.93;;;11.00;99.90;;;;;;5000125;28;20796;-62
2023/12/25 00:37:43;;;;;;;1.38;0.35;;;11.00;99.90;;;;;;5003661;28;20029;-62
2023/12/25 00:40:09;;;;;;;4.38;0.30;;;11.10;99.90;;;;;;5001415;28;20833;-62
2023/12/25 00:42:34;;;;;;;1.63;0.43;;;11.20;99.90;;;;;;5003228;28;20062;-62
2023/12/25 00:45:00;;;;;;;0.88;0.30;;;11.20;99.90;;;;;;5002547;28;20532;-63
2023/12/25 00:47:26;;;;;;;0.55;0.40;;;11.20;99.90;;;;;;5003477;28;20505;-62
2023/12/25 00:49:52;;;;;;;0.55;0.40;;;11.30;99.90;;;;;;5001783;28;20380;-63
2023/12/25 00:52:17;;;;;;;2.38;0.30;;;11.40;99.90;;;;;;5003754;28;20096;-62
2023/12/25 00:54:44;;;;;;;0.13;0.10;;;11.40;99.90;;;;;;5002849;28;20100;-62
2023/12/25 00:57:10;;;;;;;1.15;0.30;;;11.40;99.90;;;;;;5001617;28;20072;-63
2023/12/25 00:59:36;;;;;;;1.00;0.30;;;11.40;99.90;;;;;;5000433;28;20037;-62
2023/12/25 01:02:02;;;;;;;5.35;0.40;;;11.40;99.90;;;;;;5004316;28;20402;-62
2023/12/25 01:04:28;;;;;;;1.90;0.30;;;11.40;99.90;;;;;;5004269;28;20535;-62
2023/12/25 01:06:54;;;;;;;2.15;0.50;;;11.40;99.90;;;;;;4999951;28;20155;-63
2023/12/25 01:09:19;;;;;;;2.38;0.52;;;11.50;99.90;;;;;;5006035;28;20029;-62
2023/12/25 01:11:45;;;;;;;0.52;0.43;;;11.50;99.90;;;;;;5002491;28;20040;-63
2023/12/25 01:14:11;;;;;;;4.72;0.85;;;11.40;99.90;;;;;;5003438;28;20110;-63
2023/12/25 01:16:37;;;;;;;2.63;0.98;;;11.20;99.90;;;;;;5002370;28;20903;-62
2023/12/25 01:19:04;;;;;;;4.05;0.60;;;11.30;99.90;;;;;;5001284;28;20106;-62
2023/12/25 01:21:32;;;;;;;4.53;0.80;;;11.30;99.90;;;;;;4999368;28;20030;-63
2023/12/25 01:23:58;;;;;;;2.38;0.80;;;11.40;99.90;;;;;;5003543;28;20113;-63
2023/12/25 01:26:24;;;;;;;2.25;0.57;;;11.30;99.90;;;;;;5004034;28;20060;-62
2023/12/25 01:28:50;;;;;;;3.78;0.50;;;11.30;99.90;;;;;;5000021;28;20026;-63
2023/12/25 01:31:17;;;;;;;3.22;0.50;;;11.40;99.90;;;;;;5002907;28;20034;-63
2023/12/25 01:33:42;;;;;;;5.25;0.90;;;11.40;99.90;;;;;;5001456;28;20033;-62
2023/12/25 01:36:08;;;;;;;3.67;0.52;;;11.50;99.90;;;;;;5004862;28;20030;-63
2023/12/25 01:38:34;;;;;;;4.35;0.60;;;11.60;99.90;;;;;;4998982;28;20705;-62
2023/12/25 01:41:00;;;;;;;1.92;0.55;;;11.60;99.90;;;;;;5002507;28;20465;-62
2023/12/25 01:43:27;;;;;;;1.67;0.50;;;11.60;99.90;;;;;;5001062;28;20061;-63
2023/12/25 01:45:52;;;;;;;1.65;0.32;;;11.60;99.90;;;;;;5003018;28;20065;-62
2023/12/25 01:48:19;;;;;;;3.28;0.90;;;11.60;99.90;;;;;;5001446;28;20033;-62
2023/12/25 01:50:45;;;;;;;1.88;0.52;;;11.70;99.90;;;;;;4997208;28;20026;-63
2023/12/25 01:53:12;;;;;;;2.35;0.60;;;11.70;99.90;;;;;;4998103;28;20034;-62
2023/12/25 01:55:38;;;;;;;3.30;0.50;;;11.60;99.90;;;;;;5005516;28;20030;-62
2023/12/25 01:58:04;;;;;;;2.92;0.52;;;11.60;99.90;;;;;;4999584;28;20025;-62
2023/12/25 02:00:30;;;;;;;1.33;0.50;;;11.60;99.90;;;;;;4993098;28;20030;-62
2023/12/25 02:02:56;;;;;;;4.05;0.60;;;11.50;99.90;;;;;;5000455;28;20673;-62
2023/12/25 02:05:22;;;;;;;1.80;0.70;;;11.60;99.90;;;;;;4998997;28;20030;-63
2023/12/25 02:07:50;;;;;;;1.00;0.45;;;11.60;99.90;;;;;;5001345;28;20053;-63
2023/12/25 02:10:27;;;;;;;2.05;0.60;;;11.60;99.90;;;;;;5003727;28;20042;-63
2023/12/25 02:12:53;;;;;;;3.20;0.88;;;11.70;99.90;;;;;;4998505;28;20045;-62
2023/12/25 02:15:19;;;;;;;3.38;0.55;;;11.70;99.90;;;;;;4998820;28;20053;-62
2023/12/25 02:17:45;;;;;;;1.77;0.32;;;11.80;99.90;;;;;;5001321;28;20045;-62
2023/12/25 02:20:12;;;;;;;4.78;0.52;;;11.80;99.90;;;;;;5004760;28;20116;-62
2023/12/25 02:22:39;;;;;;;3.80;0.65;;;11.80;99.90;;;;;;5000510;28;20494;-63
2023/12/25 02:25:19;;;;;;;4.97;1.08;;;11.80;99.90;;;;;;4997635;28;20645;-63
2023/12/25 02:27:45;;;;;;;2.50;0.70;;;11.90;99.90;;;;;;5004886;28;20030;-62
2023/12/25 02:30:11;;;;;;;3.13;0.50;;;11.90;99.90;;;;;;4999290;28;20825;-62
2023/12/25 02:32:37;;;;;;;0.98;0.50;;;11.90;99.90;;;;;;5001122;28;20620;-62
2023/12/25 02:35:03;;;;;;;2.53;0.65;;;11.90;99.90;;;;;;4997817;28;20030;-62
2023/12/25 02:37:29;;;;;;;2.22;0.60;;;12.00;99.90;;;;;;4999846;28;20058;-62
2023/12/25 02:39:55;;;;;;;1.58;0.73;;;12.00;99.90;;;;;;5004158;28;20457;-62
2023/12/25 02:42:21;;;;;;;4.88;0.40;;;12.00;99.90;;;;;;5000853;28;20037;-63
2023/12/25 02:44:47;;;;;;;1.00;0.50;;;12.10;99.90;;;;;;4999737;28;20045;-63
2023/12/25 02:47:12;;;;;;;2.00;0.73;;;12.10;99.90;;;;;;5003395;28;20121;-62
2023/12/25 02:49:38;;;;;;;3.55;1.42;;;12.10;99.90;;;;;;5003046;28;20034;-63
2023/12/25 02:52:04;;;;;;;2.67;0.80;;;12.10;99.90;;;;;;5002499;28;20038;-62
2023/12/25 02:54:30;;;;;;;1.63;0.55;;;12.20;99.90;;;;;;4999379;28;20052;-62
2023/12/25 02:56:56;;;;;;;1.70;0.55;;;12.20;99.90;;;;;;4995251;28;20440;-62
2023/12/25 02:59:22;;;;;;;0.60;0.50;;;12.20;99.90;;;;;;5004114;28;20050;-63
2023/12/25 03:01:48;;;;;;;0.98;0.38;;;12.20;99.90;;;;;;5000746;28;20116;-62
2023/12/25 03:04:14;;;;;;;1.35;0.50;;;12.20;99.90;;;;;;5000998;28;20137;-62
2023/12/25 03:06:40;;;;;;;0.75;0.40;;;12.20;99.90;;;;;;4998353;28;20100;-62
2023/12/25 03:09:06;;;;;;;1.50;0.40;;;12.20;99.90;;;;;;5002579;28;20453;-62
2023/12/25 03:11:32;;;;;;;1.83;0.98;;;12.20;99.90;;;;;;4997708;28;20053;-62
2023/12/25 03:13:57;;;;;;;1.63;0.45;;;12.20;99.90;;;;;;5002550;28;20125;-62
2023/12/25 03:16:23;;;;;;;3.58;0.57;;;12.20;99.90;;;;;;5001543;28;20084;-62
2023/12/25 03:18:49;;;;;;;0.90;0.65;;;12.10;99.90;;;;;;5002271;28;20034;-63
2023/12/25 03:21:16;;;;;;;2.20;0.50;;;12.10;99.90;;;;;;5003798;28;20065;-62
2023/12/25 03:23:42;;;;;;;3.80;0.68;;;12.00;99.90;;;;;;4999382;28;20042;-62
2023/12/25 03:26:08;;;;;;;6.57;1.40;;;12.00;99.90;;;;;;4996121;28;20042;-62
2023/12/25 03:28:33;;;;;;;2.35;0.73;;;12.00;99.90;;;;;;5002013;28;20025;-62
2023/12/25 03:30:59;;;;;;;1.83;0.63;;;12.00;99.90;;;;;;5003743;28;20064;-62
2023/12/25 03:33:25;;;;;;;1.33;0.47;;;12.00;99.90;;;;;;4997444;28;20042;-62
2023/12/25 03:35:51;;;;;;;3.53;0.70;;;12.00;99.90;;;;;;5002262;28;20034;-62
2023/12/25 03:38:18;;;;;;;2.83;0.70;;;12.00;99.90;;;;;;5001608;28;20026;-63
2023/12/25 03:40:43;;;;;;;9.73;1.25;;;12.00;99.90;;;;;;4997537;28;20747;-62
2023/12/25 03:43:09;;;;;;;5.25;0.85;;;11.90;99.90;;;;;;5000864;28;20103;-62
2023/12/25 03:45:35;;;;;;;3.00;0.93;;;11.80;99.90;;;;;;5000502;28;20030;-62
2023/12/25 03:48:01;;;;;;;8.10;1.23;;;11.70;99.90;;;;;;4999147;28;20113;-62
2023/12/25 03:50:26;;;;;;;3.63;0.60;;;11.50;99.90;;;;;;5000737;28;20030;-62
2023/12/25 03:52:52;;;;;;;4.45;0.60;;;11.50;99.90;;;;;;4990674;28;20109;-62
2023/12/25 03:55:18;;;;;;;3.63;0.80;;;11.40;99.90;;;;;;5000638;28;20437;-62
2023/12/25 03:57:44;;;;;;;0.75;0.68;;;11.30;99.90;;;;;;5005561;28;20045;-62
2023/12/25 04:00:10;;;;;;;0.45;0.40;;;11.20;99.90;;;;;;5004013;28;20129;-62
2023/12/25 04:02:42;;;;;;;2.70;0.60;;;11.20;99.90;;;;;;5003256;28;20034;-62
2023/12/25 04:05:09;;;;;;;2.65;0.47;;;11.20;99.90;;;;;;5001920;28;20037;-62
2023/12/25 04:07:36;;;;;;;5.22;1.25;;;11.30;99.90;;;;;;5007621;28;20569;-62
2023/12/25 04:10:02;;;;;;;2.50;0.60;;;11.40;99.90;;;;;;4999910;28;20537;-62
2023/12/25 04:12:28;;;;;;;3.72;0.60;;;11.40;99.90;;;;;;5003847;28;20026;-62
2023/12/25 04:14:54;;;;;;;1.70;0.52;;;11.40;99.90;;;;;;5004181;28;20034;-63
2023/12/25 04:17:20;;;;;;;2.55;0.70;;;11.50;99.90;;;;;;5002472;28;20026;-62
2023/12/25 04:19:45;;;;;;;2.63;0.90;;;11.50;99.90;;;;;;5006185;28;20515;-62
2023/12/25 04:22:13;;;;;;;4.32;0.70;;;11.60;99.90;;;;;;5002487;28;20402;-63
2023/12/25 04:24:40;;;;;;;0.77;0.45;;;11.60;99.90;;;;;;4984267;28;20053;-62
2023/12/25 04:27:06;;;;;;;3.25;0.75;;;11.60;99.90;;;;;;5004951;28;20022;-62
2023/12/25 04:29:31;;;;;;;4.47;0.75;;;11.70;99.90;;;;;;5006978;28;20039;-62
2023/12/25 04:31:59;;;;;;;1.35;0.50;;;11.70;99.90;;;;;;5004851;28;20764;-63
2023/12/25 04:34:25;;;;;;;1.77;0.70;;;11.70;99.90;;;;;;4997112;28;20033;-62
2023/12/25 04:36:51;;;;;;;2.10;0.73;;;11.70;99.90;;;;;;5005907;28;20030;-63
2023/12/25 04:39:17;;;;;;;3.72;0.65;;;11.80;99.90;;;;;;5002454;28;20024;-62
2023/12/25 04:41:42;;;;;;;1.05;0.50;;;11.80;99.90;;;;;;5003740;28;20034;-62
2023/12/25 04:44:08;;;;;;;2.42;0.77;;;11.80;99.90;;;;;;5005566;28;20065;-62
2023/12/25 04:46:35;;;;;;;4.03;0.75;;;11.80;99.90;;;;;;5000866;28;20067;-62
2023/12/25 04:49:02;;;;;;;1.35;0.60;;;11.80;99.90;;;;;;4996761;28;20030;-62
2023/12/25 04:51:27;;;;;;;1.02;0.50;;;11.70;99.90;;;;;;5001734;28;20034;-62
2023/12/25 04:53:53;;;;;;;1.20;0.57;;;11.70;99.90;;;;;;5004823;28;20030;-63
2023/12/25 04:56:19;;;;;;;2.03;0.43;;;11.60;99.90;;;;;;5001783;28;20030;-63
2023/12/25 04:58:45;;;;;;;0.70;0.50;;;11.60;99.90;;;;;;5000926;28;20354;-62
2023/12/25 05:01:11;;;;;;;3.17;0.70;;;11.60;99.90;;;;;;5001562;28;20053;-62
2023/12/25 05:03:37;;;;;;;2.40;0.60;;;11.60;99.90;;;;;;5002019;28;20681;-62
2023/12/25 05:06:03;;;;;;;1.13;0.50;;;11.60;99.90;;;;;;4999669;28;20034;-62
2023/12/25 05:08:29;;;;;;;3.65;0.65;;;11.70;99.90;;;;;;5002620;28;20022;-62
2023/12/25 05:10:55;;;;;;;0.75;0.57;;;11.60;99.90;;;;;;4999373;28;20029;-62
2023/12/25 05:13:21;;;;;;;2.25;0.70;;;11.60;99.90;;;;;;5001859;28;20398;-62
2023/12/25 05:15:46;;;;;;;5.03;0.63;;;11.70;99.90;;;;;;5005605;28;20025;-62
2023/12/25 05:18:12;;;;;;;2.75;0.70;;;11.70;99.90;;;;;;4998168;28;20467;-63
2023/12/25 05:20:38;;;;;;;1.40;0.60;;;11.70;99.90;;;;;;5001283;28;20045;-62
2023/12/25 05:23:04;;;;;;;2.00;0.68;;;11.60;99.90;;;;;;5000923;28;20073;-63
2023/12/25 05:25:30;;;;;;;1.52;0.47;;;11.60;99.90;;;;;;5003800;28;20116;-62
2023/12/25 05:27:56;;;;;;;1.10;0.50;;;11.60;99.90;;;;;;5001686;28;20026;-62
2023/12/25 05:30:22;;;;;;;2.15;0.55;;;11.60;99.90;;;;;;5003964;28;20041;-62
2023/12/25 05:32:48;;;;;;;1.45;0.80;;;11.60;99.90;;;;;;4998962;28;20553;-63
2023/12/25 05:35:14;;;;;;;2.75;0.60;;;11.60;99.90;;;;;;5005198;28;20027;-62
2023/12/25 05:37:40;;;;;;;3.55;0.70;;;11.60;99.90;;;;;;5003644;28;20029;-62
2023/12/25 05:40:06;;;;;;;0.93;0.68;;;11.70;99.90;;;;;;5000328;28;20034;-62
2023/12/25 05:42:32;;;;;;;2.65;0.50;;;11.60;99.90;;;;;;5001353;28;20056;-62
2023/12/25 05:44:57;;;;;;;2.70;0.68;;;11.60;99.90;;;;;;4999250;28;20129;-62
2023/12/25 05:47:24;;;;;;;2.85;0.80;;;11.60;99.90;;;;;;4998690;28;20065;-62
2023/12/25 05:49:52;;;;;;;3.53;0.73;;;11.60;99.90;;;;;;5002859;28;20036;-62
2023/12/25 05:52:17;;;;;;;1.98;0.60;;;11.60;99.90;;;;;;5003341;28;20032;-62
2023/12/25 05:54:43;;;;;;;1.80;0.68;;;11.60;99.90;;;;;;4997141;28;20030;-62
2023/12/25 05:57:09;;;;;;;2.80;1.10;;;11.60;99.90;;;;;;5003957;28;20471;-62
2023/12/25 05:59:37;;;;;;;4.53;0.70;;;11.60;99.90;;;;;;5001114;28;20231;-62
2023/12/25 06:02:04;;;;;;;3.63;0.68;;;11.50;99.90;;;;;;5000140;28;20022;-63
2023/12/25 06:04:31;;;;;;;5.03;0.70;;;11.50;99.90;;;;;;4999216;28;20030;-62
2023/12/25 06:06:56;;;;;;;7.32;0.80;;;11.50;99.90;;;;;;4992396;28;20577;-62
2023/12/25 06:09:23;;;;;;;1.48;0.60;;;11.40;99.90;;;;;;5005057;28;20029;-62
2023/12/25 06:11:49;;;;;;;1.35;0.75;;;11.50;99.90;;;;;;5001730;28;20022;-63
2023/12/25 06:14:14;;;;;;;3.58;1.33;;;11.50;99.90;;;;;;5002596;28;20618;-63
2023/12/25 06:16:40;;;;;;;4.00;1.48;;;11.60;99.90;;;;;;4997364;28;20502;-62
2023/12/25 06:19:06;;;;;;;1.88;0.75;;;11.60;99.90;;;;;;4997976;28;20487;-62
2023/12/25 06:21:31;;;;;;;1.77;1.17;;;11.60;99.90;;;;;;5001489;28;20080;-62
2023/12/25 06:23:58;;;;;;;4.78;2.65;;;11.60;99.90;;;;;;5000585;28;20041;-62
2023/12/25 06:26:23;;;;;;;4.25;1.60;;;11.60;99.90;;;;;;4999884;28;20033;-62
2023/12/25 06:28:49;;;;;;;6.50;2.40;;;11.60;99.90;;;;;;4999117;28;20030;-63
2023/12/25 06:31:15;;;;;;;3.97;0.80;;;11.60;99.90;;;;;;5002087;28;20034;-63
2023/12/25 06:33:41;;;;;;;1.98;0.88;;;11.60;99.90;;;;;;5002651;28;20524;-63
2023/12/25 06:36:07;;;;;;;2.15;0.85;;;11.70;99.90;;;;;;5002868;28;20026;-63
2023/12/25 06:38:33;;;;;;;1.40;0.75;;;11.60;99.90;;;;;;4997618;28;20454;-62
2023/12/25 06:41:00;;;;;;;1.95;0.77;;;11.70;99.90;;;;;;5000574;28;20030;-63
2023/12/25 06:43:26;;;;;;;5.47;1.05;;;11.70;99.90;;;;;;4998703;28;20030;-63
2023/12/25 06:45:52;;;;;;;2.80;0.88;;;11.70;99.90;;;;;;4999886;28;20513;-62
2023/12/25 06:48:17;;;;;;;6.60;1.42;;;11.70;99.90;;;;;;5001211;28;20431;-62
2023/12/25 06:50:43;;;;;;;4.72;0.70;;;11.70;99.90;;;;;;4998197;28;20028;-62
2023/12/25 06:53:10;;;;;;;4.15;0.88;;;11.60;99.90;;;;;;5001958;28;20145;-63
2023/12/25 06:55:36;;;;;;;2.85;1.05;;;11.70;99.90;;;;;;5002364;28;20402;-63
2023/12/25 06:58:01;;;;;;;8.27;1.25;;;11.70;99.90;;;;;;4997435;28;20026;-62
2023/12/25 07:00:27;;;;;;;1.25;0.60;;;11.70;99.90;;;;;;4998027;28;20033;-62
2023/12/25 07:02:53;;;;;;;1.98;0.57;;;11.70;99.90;;;;;;4999459;28;20056;-62
2023/12/25 07:05:19;;;;;;;4.38;0.90;;;11.70;99.90;;;;;;5000621;28;20065;-62
2023/12/25 07:07:45;;;;;;;4.18;0.65;;;11.70;99.90;;;;;;4999809;28;20041;-63
2023/12/25 07:10:10;;;;;;;1.90;0.80;;;11.70;99.90;;;;;;4997778;28;20058;-63
2023/12/25 07:12:36;;;;;;;5.90;0.93;;;11.70;99.90;;;;;;4994044;28;20109;-62
2023/12/25 07:15:02;;;;;;;1.38;0.75;;;11.60;99.90;;;;;;5000792;28;20100;-62
2023/12/25 07:17:27;;;;;;;1.70;0.63;;;11.50;99.90;;;;;;4999622;28;20101;-62
2023/12/25 07:19:53;;;;;;;1.70;0.52;;;11.50;99.90;;;;;;4996316;28;20026;-62
2023/12/25 07:22:19;;;;;;;4.40;0.93;;;11.40;99.90;;;;;;4998050;28;20660;-62
2023/12/25 07:24:45;;;;;;;2.88;0.65;;;11.30;99.90;;;;;;5004088;28;20873;-62
2023/12/25 07:27:10;;;;;;;4.43;0.63;;;11.20;99.90;;;;;;5001563;28;20042;-62
2023/12/25 07:29:36;;;;;;;2.03;0.70;;;11.20;99.90;;;;;;4997590;28;20022;-62
2023/12/25 07:32:02;;;;;;;3.15;0.88;;;11.10;99.90;;;;;;4999427;28;20764;-63
2023/12/25 07:34:28;;;;;;;2.35;0.85;;;11.10;99.90;;;;;;5001554;28;20032;-62
2023/12/25 07:36:54;;;;;;;4.20;0.82;;;11.10;99.90;;;;;;5006363;28;20021;-62
2023/12/25 07:39:20;;;;;;;3.15;0.43;;;11.00;99.90;;;;;;4996227;28;20561;-63
2023/12/25 07:41:46;;;;;;;2.92;0.93;;;11.00;99.90;;;;;;5002173;28;20028;-62
2023/12/25 07:44:14;;;;;;;1.98;0.75;;;10.90;99.90;;;;;;4999138;28;20034;-62
2023/12/25 07:46:40;;;;;;;6.35;0.60;;;10.80;99.90;;;;;;5004660;28;20044;-63
2023/12/25 07:49:05;;;;;;;3.33;0.75;;;10.80;99.90;;;;;;5004626;28;20042;-62
2023/12/25 07:51:31;;;;;;;3.65;0.68;;;10.80;99.90;;;;;;5004404;28;20029;-62
2023/12/25 07:53:57;;;;;;;2.00;0.65;;;10.90;99.90;;;;;;4995492;28;20133;-63
2023/12/25 07:56:23;;;;;;;4.00;1.08;;;10.90;99.90;;;;;;5001180;28;20179;-62
2023/12/25 07:58:48;;;;;;;5.28;0.88;;;11.00;99.90;;;;;;5006477;28;20101;-63
2023/12/25 08:01:14;;;;;;;0.85;0.63;;;11.00;99.90;;;;;;5005126;28;20172;-62
2023/12/25 08:03:40;;;;;;;3.30;0.73;;;10.90;99.90;;;;;;5000338;28;20042;-62
2023/12/25 08:06:07;;;;;;;3.05;1.00;;;11.00;99.90;;;;;;4999434;28;20035;-62
2023/12/25 08:08:32;;;;;;;2.25;0.70;;;11.00;99.90;;;;;;5004240;28;20068;-62
2023/12/25 08:10:58;;;;;;;3.10;0.88;;;10.90;99.90;;;;;;4999206;28;20069;-62
2023/12/25 08:13:24;;;;;;;1.52;0.70;;;11.00;99.90;;;;;;5004278;28;20068;-63
2023/12/25 08:15:50;;;;;;;3.33;1.08;;;11.00;99.90;;;;;;5006647;28;20033;-63
2023/12/25 08:18:15;;;;;;;1.50;0.70;;;11.00;99.90;;;;;;5000869;28;20026;-62
2023/12/25 08:20:41;;;;;;;6.38;2.05;;;11.10;99.90;;;;;;5004250;28;20390;-62
2023/12/25 08:23:07;;;;;;;2.92;2.10;;;11.10;99.90;;;;;;5003090;28;20788;-62
2023/12/25 08:25:33;;;;;;;2.92;0.85;;;11.10;99.90;;;;;;5005028;28;20481;-63
2023/12/25 08:27:58;;;;;;;10.57;1.90;;;11.20;99.90;;;;;;4998166;28;20034;-63
2023/12/25 08:30:24;;;;;;;1.75;0.60;;;11.30;99.90;;;;;;5003596;28;20042;-62
2023/12/25 08:32:50;;;;;;;2.38;0.65;;;11.40;99.90;;;;;;5003721;28;20038;-62
2023/12/25 08:35:16;;;;;;;2.00;0.82;;;11.40;99.90;;;;;;4999340;28;20125;-63
2023/12/25 08:37:41;;;;;;;5.03;0.82;;;11.40;99.90;;;;;;5001342;28;20075;-63
2023/12/25 08:40:08;;;;;;;1.33;0.50;;;11.50;99.90;;;;;;5000560;28;20030;-62
2023/12/25 08:42:34;;;;;;;3.78;1.10;;;11.50;99.90;;;;;;5002904;28;20034;-62
2023/12/25 08:45:00;;;;;;;4.95;0.90;;;11.60;99.90;;;;;;5001441;28;20076;-63
2023/12/25 08:47:26;;;;;;;5.30;0.80;;;11.60;99.90;;;;;;5003054;28;20158;-63
2023/12/25 08:49:52;;;;;;;2.28;0.90;;;11.60;99.90;;;;;;5001122;28;20026;-63
2023/12/25 08:52:18;;;;;;;2.95;0.55;;;11.60;99.90;;;;;;5006627;28;20383;-62
2023/12/25 08:54:44;;;;;;;7.22;1.00;;;11.70;99.90;;;;;;5005360;28;20037;-63
2023/12/25 08:57:10;;;;;;;1.70;0.90;;;11.70;99.90;;;;;;5001890;28;20030;-62
2023/12/25 08:59:36;;;;;;;6.20;1.23;;;11.80;99.90;;;;;;5000655;28;20543;-63
2023/12/25 09:02:03;;;;;;;4.13;0.93;;;11.80;99.90;;;;;;5000816;28;20041;-63
2023/12/25 09:04:28;;;;;;;3.90;1.02;;;11.80;99.90;;;;;;5005666;28;20113;-63
2023/12/25 09:06:54;;;;;;;2.50;0.85;;;11.90;99.90;;;;;;5003734;28;20117;-63
2023/12/25 09:09:21;;;;;;;2.38;0.85;;;11.90;99.90;;;;;;5000582;28;20456;-63
2023/12/25 09:11:47;;;;;;;3.22;0.77;;;11.90;99.90;;;;;;4998052;28;20561;-63
2023/12/25 09:14:13;;;;;;;0.82;0.50;;;11.90;99.90;;;;;;5005172;28;20041;-63
2023/12/25 09:16:39;;;;;;;3.65;1.40;;;11.80;99.90;;;;;;5004816;28;20029;-63
2023/12/25 09:19:04;;;;;;;2.78;1.55;;;11.80;99.90;;;;;;5003145;28;20105;-62
2023/12/25 09:21:37;;;;;;;4.00;2.70;;;11.70;99.90;;;;;;5000042;28;20052;-63
2023/12/25 09:24:03;;;;;;;5.22;2.03;;;11.80;99.90;;;;;;5000719;28;20084;-63
2023/12/25 09:26:29;;;;;;;13.95;8.75;;;11.80;99.90;;;;;;5005507;28;20080;-62
2023/12/25 09:28:55;;;;;;;5.35;2.80;;;11.70;99.90;;;;;;5003431;28;20030;-63
2023/12/25 09:31:20;;;;;;;5.15;1.75;;;11.80;99.90;;;;;;4999371;28;20026;-63
2023/12/25 09:33:46;;;;;;;5.53;2.35;;;12.00;99.90;;;;;;4999572;28;20117;-63
2023/12/25 09:36:12;;;;;;;4.38;1.40;;;12.20;99.90;;;;;;5004939;28;20827;-63
2023/12/25 09:38:38;;;;;;;4.18;1.75;;;12.40;99.90;;;;;;5004471;28;20528;-63
2023/12/25 09:41:09;;;;;;;6.38;1.33;;;12.60;99.90;;;;;;5000359;28;20033;-63
2023/12/25 09:43:38;;;;;;;5.55;1.50;;;13.40;99.90;;;;;;5005231;28;20040;-63
2023/12/25 09:46:05;;;;;;;6.57;3.38;;;14.20;99.90;;;;;;4979874;28;20032;-63
2023/12/25 09:48:31;;;;;;;3.40;1.75;;;14.60;99.90;;;;;;4993240;28;20034;-63
2023/12/25 09:50:58;;;;;;;6.50;1.90;;;14.70;99.90;;;;;;5000996;28;20034;-63
2023/12/25 09:53:24;;;;;;;3.55;1.40;;;15.30;99.90;;;;;;5004306;28;20810;-63
2023/12/25 09:55:52;;;;;;;1.08;0.47;;;16.40;99.90;;;;;;4995742;28;20019;-63
2023/12/25 09:58:19;;;;;;;5.63;1.08;;;17.60;97.50;;;;;;5004916;28;20038;-61
2023/12/25 10:00:45;;;;;;;3.20;1.00;;;18.20;94.80;;;;;;5003308;28;20496;-63
2023/12/25 10:03:11;;;;;;;3.85;0.82;;;18.60;93.10;;;;;;4998577;28;20036;-63
2023/12/25 10:05:36;;;;;;;5.28;0.63;;;18.10;92.90;;;;;;5002219;28;20109;-63
2023/12/25 10:08:02;;;;;;;4.97;0.80;;;17.30;93.90;;;;;;4999447;28;20481;-63
2023/12/25 10:10:29;;;;;;;2.78;0.88;;;16.50;94.80;;;;;;5004162;28;20395;-63
2023/12/25 10:12:59;;;;;;;2.88;0.52;;;15.90;96.60;;;;;;5000859;28;20114;-63
2023/12/25 10:15:25;;;;;;;3.25;1.10;;;15.20;97.60;;;;;;5001248;28;20376;-63
2023/12/25 10:18:04;;;;;;;7.25;1.27;;;14.60;99.30;;;;;;4995229;28;20053;-63
2023/12/25 10:20:30;;;;;;;1.40;0.43;;;14.20;99.90;;;;;;5004635;28;20029;-63
2023/12/25 10:22:56;;;;;;;3.30;1.45;;;13.90;99.90;;;;;;5003124;28;20042;-64
2023/12/25 10:25:28;;;;;;;1.40;0.50;;;13.70;99.90;;;;;;5001025;28;20038;-64
2023/12/25 10:27:54;;;;;;;3.03;0.60;;;13.60;99.90;;;;;;4996147;28;20038;-64
2023/12/25 10:30:27;;;;;;;2.20;0.50;;;13.40;99.90;;;;;;5008568;28;20061;-63
2023/12/25 10:33:14;;;;;;;3.28;0.50;;;13.20;99.90;;;;;;5002120;28;20038;-64
2023/12/25 10:35:41;;;;;;;2.88;0.75;;;13.30;99.90;;;;;;5001355;28;20029;-64
2023/12/25 10:38:07;;;;;;;3.08;0.43;;;13.20;99.90;;;;;;4991295;28;20719;-64
2023/12/25 10:40:34;;;;;;;2.17;0.50;;;13.20;99.90;;;;;;4995835;28;20125;-64
2023/12/25 10:43:00;;;;;;;3.67;0.50;;;13.20;99.90;;;;;;4999939;28;20034;-64
2023/12/25 10:45:30;;;;;;;3.10;0.50;;;13.10;99.90;;;;;;4996120;28;20029;-63
2023/12/25 10:48:03;;;;;;;3.97;0.50;;;13.00;99.90;;;;;;4995450;28;20118;-63
2023/12/25 10:50:34;;;;;;;2.65;0.70;;;13.00;99.90;;;;;;4992033;28;20041;-63
2023/12/25 10:53:03;;;;;;;4.22;0.60;;;13.10;99.90;;;;;;5003608;28;20041;-63
2023/12/25 10:55:40;;;;;;;1.35;0.70;;;13.10;99.90;;;;;;4998699;28;20030;-63
2023/12/25 10:58:08;;;;;;;1.75;0.50;;;13.20;99.90;;;;;;5000655;28;20026;-63
2023/12/25 11:00:39;;;;;;;6.70;1.27;;;13.50;99.90;;;;;;4995419;28;20038;-63
2023/12/25 11:03:05;;;;;;;4.28;0.73;;;13.80;99.90;;;;;;4999980;28;20045;-63
2023/12/25 11:05:31;;;;;;;4.07;0.70;;;13.80;99.90;;;;;;4999761;28;20030;-63
2023/12/25 11:07:58;;;;;;;2.38;0.73;;;13.80;99.90;;;;;;4997442;28;20037;-63
2023/12/25 11:10:27;;;;;;;4.60;1.10;;;13.70;99.90;;;;;;5003221;28;20037;-63
2023/12/25 11:12:54;;;;;;;4.10;1.00;;;13.60;99.90;;;;;;4994436;28;20100;-63
2023/12/25 11:15:20;;;;;;;3.35;0.80;;;13.40;99.90;;;;;;5006781;28;20475;-63
2023/12/25 11:17:46;;;;;;;3.35;0.60;;;13.20;99.90;;;;;;5002720;28;20109;-63
2023/12/25 11:20:12;;;;;;;2.28;0.63;;;13.10;99.90;;;;;;4998416;28;20026;-64
2023/12/25 11:22:41;;;;;;;4.82;0.82;;;13.00;99.90;;;;;;4997434;28;20049;-63
2023/12/25 11:25:20;;;;;;;1.77;0.88;;;12.90;99.90;;;;;;4998294;28;20062;-63
2023/12/25 11:27:55;;;;;;;4.13;1.17;;;12.70;99.90;;;;;;5001780;28;20045;-63
2023/12/25 11:30:23;;;;;;;2.47;0.80;;;12.50;99.90;;;;;;5001071;28;20025;-63
2023/12/25 11:32:50;;;;;;;10.55;1.42;;;12.50;99.90;;;;;;4991743;28;20061;-63
2023/12/25 11:35:28;;;;;;;6.25;1.30;;;12.50;99.90;;;;;;4997087;28;20040;-63
2023/12/25 11:38:19;;;;;;;4.50;0.68;;;12.40;99.90;;;;;;4996616;28;20046;-63
2023/12/25 11:40:50;;;;;;;5.05;0.88;;;12.40;99.90;;;;;;4994416;28;20415;-63
2023/12/25 11:43:19;;;;;;;3.95;0.75;;;12.40;99.90;;;;;;4997207;28;20132;-63
2023/12/25 11:45:46;;;;;;;2.03;0.82;;;12.40;99.90;;;;;;4993542;28;20597;-63
2023/12/25 11:48:12;;;;;;;3.85;0.90;;;12.50;99.90;;;;;;4999544;28;20046;-63
2023/12/25 11:50:41;;;;;;;6.80;0.63;;;12.60;99.90;;;;;;4995530;28;20462;-63
2023/12/25 11:53:07;;;;;;;4.60;0.65;;;12.60;99.90;;;;;;4999688;28;20042;-63
2023/12/25 11:55:33;;;;;;;5.03;0.93;;;12.60;99.90;;;;;;4997503;28;20088;-63
2023/12/25 11:57:59;;;;;;;5.05;0.93;;;12.50;99.90;;;;;;4996963;28;20104;-63
2023/12/25 12:00:31;;;;;;;3.88;0.85;;;12.50;99.90;;;;;;4996943;28;20475;-63
2023/12/25 12:02:57;;;;;;;5.32;1.00;;;12.50;99.90;;;;;;4997355;28;20637;-63
2023/12/25 12:05:23;;;;;;;3.95;0.93;;;12.50;99.90;;;;;;4997149;28;20069;-63
2023/12/25 12:07:49;;;;;;;6.03;1.25;;;12.50;99.90;;;;;;4997706;28;20038;-63
2023/12/25 12:10:15;;;;;;;3.30;0.90;;;12.60;99.90;;;;;;4998145;28;20030;-63
2023/12/25 12:12:42;;;;;;;1.90;0.80;;;12.80;99.90;;;;;;5001706;28;20466;-63
2023/12/25 12:15:09;;;;;;;2.10;0.73;;;12.80;99.90;;;;;;4998052;28;20034;-63
2023/12/25 12:17:35;;;;;;;5.65;0.85;;;12.90;99.90;;;;;;4998242;28;20573;-60
2023/12/25 12:20:05;;;;;;;6.13;1.50;;;13.00;99.90;;;;;;5001150;28;20441;-63
2023/12/25 12:22:35;;;;;;;6.03;1.05;;;13.00;99.90;;;;;;5004002;28;20030;-63
2023/12/25 12:25:14;;;;;;;4.70;1.10;;;13.00;99.90;;;;;;4999891;28;20036;-65
2023/12/25 12:27:40;;;;;;;2.25;0.98;;;13.10;99.90;;;;;;5001282;28;20704;-66
2023/12/25 12:30:07;;;;;;;3.25;1.30;;;13.20;99.90;;;;;;4994424;28;20034;-67
2023/12/25 12:32:35;;;;;;;6.72;1.45;;;13.20;99.90;;;;;;4997350;28;20045;-66
2023/12/25 12:35:02;;;;;;;6.13;1.08;;;13.20;99.90;;;;;;5000169;28;20030;-66
2023/12/25 12:37:29;;;;;;;3.47;1.00;;;13.30;99.90;;;;;;5001471;28;20040;-66
2023/12/25 12:40:03;;;;;;;4.68;1.00;;;13.30;99.90;;;;;;4998158;28;20026;-66
2023/12/25 12:42:34;;;;;;;12.98;1.00;;;13.20;99.90;;;;;;5000806;28;20029;-67